CST,Max TemperatureF,Mean TemperatureF,Min TemperatureF,Max Dew PointF,MeanDew PointF,Min DewpointF,Max Humidity, Mean Humidity, Min Humidity, Max Sea Level PressureIn, Mean Sea Level PressureIn, Min Sea Level PressureIn, Max VisibilityMiles, Mean VisibilityMiles, Min VisibilityMiles, Max Wind SpeedMPH, Mean Wind SpeedMPH, Max Gust SpeedMPH,PrecipitationIn, CloudCover, Events, WindDirDegrees
2012-11-1,41,34,28,39,27,23,93,79,65,30.16,30.11,30.07,10,10,7,17,13,20,0.00,3,,18
2012-11-2,35,32,28,32,29,27,93,87,75,30.15,30.12,30.07,10,10,9,12,8,,0.00,4,,84
2012-11-3,37,34,32,37,34,32,100,98,93,30.22,30.17,30.13,10,7,1,14,5,,0.00,8,,32
2012-11-4,37,34,32,37,35,32,100,100,100,30.22,30.18,30.14,6,2,0,9,2,,0.00,8,,33
2012-11-5,39,36,33,39,36,34,100,100,93,30.22,30.07,29.78,10,6,2,21,9,26,0.00,8,,226
2012-11-6,48,40,32,43,34,32,100,79,57,30.06,29.93,29.79,10,10,10,30,17,36,0.00,5,,307
2012-11-7,48,37,26,36,32,27,100,80,54,30.09,29.98,29.79,10,10,5,16,9,,0.40,0,,200
2012-11-8,46,39,32,39,34,32,100,87,70,30.11,29.97,29.78,10,10,9,26,11,32,0.00,5,,4
2012-11-9,39,36,32,39,33,32,100,94,87,30.12,30.01,29.83,10,10,2,23,18,30,0.00,8,,42
2012-11-10,41,34,28,41,38,27,100,100,93,29.82,29.61,29.50,10,3,1,21,12,23,0.00,8,,44
2012-11-11,28,22,17,27,17,12,100,80,68,29.88,29.80,29.64,10,9,1,0,0,,0.00,7,,-1
2012-11-12,26,20,14,19,12,5,93,75,51,30.20,30.08,29.89,10,9,1,0,0,,0.00,2,,-1
2012-11-13,35,25,15,32,24,14,100,89,75,30.23,30.20,30.18,10,10,9,10,8,,0.00,3,,220
2012-11-14,46,34,21,36,31,21,100,93,66,30.20,30.13,30.05,10,10,7,17,9,,0.00,1,,222
2012-11-15,35,28,21,32,25,19,100,79,52,30.46,30.34,30.08,10,10,9,16,9,21,0.00,0,,325
2012-11-16,50,34,19,34,23,18,93,71,40,30.45,30.24,30.03,10,10,8,21,10,26,0.00,0,,166
2012-11-17,51,42,32,39,35,32,100,84,54,30.08,30.03,29.98,10,10,6,15,7,21,0.00,1,,112
2012-11-18,55,40,26,39,34,27,100,84,54,29.98,29.94,29.88,10,8,0,12,5,,0.00,1,,170
2012-11-19,51,37,23,37,34,23,100,85,58,30.17,30.04,29.88,10,10,6,17,9,22,0.00,0,,297
2012-11-20,57,39,21,37,29,21,100,75,31,30.17,30.01,29.89,10,8,0,17,7,22,0.00,0,,196
2012-11-21,62,47,32,37,34,32,100,75,37,29.90,29.75,29.55,10,10,8,14,9,,0.00,0,,202
2012-11-22,42,32,23,37,28,16,100,81,64,30.29,29.90,29.56,10,9,3,32,18,43,0.00,6,,310
2012-11-23,21,16,10,14,9,5,92,73,58,30.51,30.42,30.30,10,10,5,30,17,34,0.00,4,,335
2012-11-24,35,22,10,32,18,7,93,73,52,30.34,29.97,29.79,10,10,10,22,10,28,0.00,5,,178
2012-11-25,33,25,17,28,19,9,87,74,55,30.29,30.05,29.91,10,10,5,23,14,31,0.00,8,,326
2012-11-26,28,16,5,12,7,0,79,64,43,30.44,30.33,30.21,10,10,9,20,11,26,0.00,2,,259
2012-11-27,33,25,17,25,21,12,93,76,63,30.26,30.16,30.09,10,10,9,22,12,28,0.00,4,,288
2012-11-28,42,32,23,27,24,19,100,73,46,30.28,30.14,30.01,10,9,3,20,9,24,0.00,3,,223
2012-11-29,26,22,17,25,19,16,100,90,80,30.14,30.09,30.05,10,6,0,21,14,26,0.00,8,,24
2012-11-30,33,28,23,32,27,18,100,88,80,30.14,30.01,29.77,10,7,3,18,11,24,0.00,4,,119